sensor_id;sensor_type;location;lat;lon;timestamp;P1;durP1;ratioP1;P2;durP2;ratioP2
1258;SDS011;619;51.472;6.628;2022-12-18T00:01:04;14.27;;;9.73;;
1258;SDS011;619;51.472;6.628;2022-12-18T00:03:34;10.53;;;8.47;;
1258;SDS011;619;51.472;6.628;2022-12-18T00:06:00;10.10;;;9.00;;
1258;SDS011;619;51.472;6.628;2022-12-18T00:08:26;10.90;;;8.60;;
1258;SDS011;619;51.472;6.628;2022-12-18T00:10:52;14.23;;;9.70;;
1258;SDS011;619;51.472;6.628;2022-12-18T00:13:20;12.77;;;8.90;;
1258;SDS011;619;51.472;6.628;2022-12-18T00:15:46;11.57;;;8.50;;
1258;SDS011;619;51.472;6.628;2022-12-18T00:18:14;10.57;;;8.67;;
1258;SDS011;619;51.472;6.628;2022-12-18T00:20:39;12.10;;;8.83;;
1258;SDS011;619;51.472;6.628;2022-12-18T00:23:06;10.77;;;7.83;;
1258;SDS011;619;51.472;6.628;2022-12-18T00:25:34;11.10;;;8.10;;
1258;SDS011;619;51.472;6.628;2022-12-18T00:28:03;12.10;;;8.10;;
1258;SDS011;619;51.472;6.628;2022-12-18T00:30:30;13.33;;;9.10;;
1258;SDS011;619;51.472;6.628;2022-12-18T00:32:57;10.90;;;8.77;;
1258;SDS011;619;51.472;6.628;2022-12-18T00:35:22;12.07;;;8.47;;
1258;SDS011;619;51.472;6.628;2022-12-18T00:37:50;14.40;;;8.80;;
1258;SDS011;619;51.472;6.628;2022-12-18T00:40:16;10.60;;;8.13;;
1258;SDS011;619;51.472;6.628;2022-12-18T00:42:42;9.80;;;8.13;;
1258;SDS011;619;51.472;6.628;2022-12-18T00:45:26;11.33;;;8.63;;
1258;SDS011;619;51.472;6.628;2022-12-18T00:47:54;12.90;;;9.33;;
1258;SDS011;619;51.472;6.628;2022-12-18T00:50:21;9.17;;;8.03;;
1258;SDS011;619;51.472;6.628;2022-12-18T00:52:48;12.70;;;9.30;;
1258;SDS011;619;51.472;6.628;2022-12-18T00:55:18;11.70;;;8.53;;
1258;SDS011;619;51.472;6.628;2022-12-18T00:57:46;13.37;;;9.30;;
1258;SDS011;619;51.472;6.628;2022-12-18T01:00:13;13.93;;;8.93;;
1258;SDS011;619;51.472;6.628;2022-12-18T01:02:42;9.83;;;8.30;;
1258;SDS011;619;51.472;6.628;2022-12-18T01:05:10;13.30;;;9.10;;
1258;SDS011;619;51.472;6.628;2022-12-18T01:07:39;13.43;;;9.57;;
1258;SDS011;619;51.472;6.628;2022-12-18T01:10:05;13.47;;;8.83;;
1258;SDS011;619;51.472;6.628;2022-12-18T01:12:32;11.80;;;8.20;;
1258;SDS011;619;51.472;6.628;2022-12-18T01:15:03;15.20;;;10.30;;
1258;SDS011;619;51.472;6.628;2022-12-18T01:17:30;25.23;;;11.10;;
1258;SDS011;619;51.472;6.628;2022-12-18T01:20:01;12.00;;;9.67;;
1258;SDS011;619;51.472;6.628;2022-12-18T01:22:27;14.40;;;9.60;;
1258;SDS011;619;51.472;6.628;2022-12-18T01:24:52;14.13;;;10.70;;
1258;SDS011;619;51.472;6.628;2022-12-18T01:27:20;11.77;;;8.23;;
1258;SDS011;619;51.472;6.628;2022-12-18T01:29:49;16.97;;;10.53;;
1258;SDS011;619;51.472;6.628;2022-12-18T01:32:14;14.03;;;9.90;;
1258;SDS011;619;51.472;6.628;2022-12-18T01:34:40;13.97;;;9.97;;
1258;SDS011;619;51.472;6.628;2022-12-18T01:37:08;15.40;;;10.63;;
1258;SDS011;619;51.472;6.628;2022-12-18T01:39:36;15.23;;;9.80;;
1258;SDS011;619;51.472;6.628;2022-12-18T01:42:09;16.20;;;10.10;;
1258;SDS011;619;51.472;6.628;2022-12-18T01:52:43;15.70;;;11.43;;
1258;SDS011;619;51.472;6.628;2022-12-18T01:55:19;16.57;;;11.23;;
1258;SDS011;619;51.472;6.628;2022-12-18T01:57:46;12.67;;;9.73;;
1258;SDS011;619;51.472;6.628;2022-12-18T02:00:14;17.93;;;10.63;;
1258;SDS011;619;51.472;6.628;2022-12-18T02:02:42;15.27;;;11.27;;
1258;SDS011;619;51.472;6.628;2022-12-18T02:05:10;13.20;;;11.10;;
1258;SDS011;619;51.472;6.628;2022-12-18T02:08:01;14.57;;;10.60;;
1258;SDS011;619;51.472;6.628;2022-12-18T02:13:41;14.40;;;9.27;;
1258;SDS011;619;51.472;6.628;2022-12-18T02:18:38;12.67;;;8.77;;
1258;SDS011;619;51.472;6.628;2022-12-18T02:23:57;19.47;;;8.93;;
1258;SDS011;619;51.472;6.628;2022-12-18T02:26:41;12.80;;;9.37;;
1258;SDS011;619;51.472;6.628;2022-12-18T02:29:35;12.70;;;9.53;;
1258;SDS011;619;51.472;6.628;2022-12-18T02:32:08;13.77;;;9.63;;
1258;SDS011;619;51.472;6.628;2022-12-18T02:34:39;13.50;;;9.30;;
1258;SDS011;619;51.472;6.628;2022-12-18T02:37:09;16.63;;;10.20;;
1258;SDS011;619;51.472;6.628;2022-12-18T02:39:38;15.47;;;10.60;;
1258;SDS011;619;51.472;6.628;2022-12-18T02:42:05;14.17;;;8.70;;
1258;SDS011;619;51.472;6.628;2022-12-18T02:44:35;12.43;;;10.07;;
1258;SDS011;619;51.472;6.628;2022-12-18T02:47:11;14.07;;;9.70;;
1258;SDS011;619;51.472;6.628;2022-12-18T02:49:48;13.10;;;10.10;;
1258;SDS011;619;51.472;6.628;2022-12-18T03:00:45;15.73;;;10.37;;
1258;SDS011;619;51.472;6.628;2022-12-18T03:03:21;13.90;;;10.03;;
1258;SDS011;619;51.472;6.628;2022-12-18T03:05:53;13.20;;;10.53;;
1258;SDS011;619;51.472;6.628;2022-12-18T03:08:27;14.23;;;9.53;;
1258;SDS011;619;51.472;6.628;2022-12-18T03:11:00;17.10;;;10.43;;
1258;SDS011;619;51.472;6.628;2022-12-18T03:13:39;14.17;;;9.13;;
1258;SDS011;619;51.472;6.628;2022-12-18T03:16:11;13.27;;;9.97;;
1258;SDS011;619;51.472;6.628;2022-12-18T03:18:46;15.87;;;10.20;;
1258;SDS011;619;51.472;6.628;2022-12-18T03:21:20;12.07;;;8.90;;
1258;SDS011;619;51.472;6.628;2022-12-18T03:23:53;15.00;;;9.87;;
1258;SDS011;619;51.472;6.628;2022-12-18T03:26:23;11.47;;;9.23;;
1258;SDS011;619;51.472;6.628;2022-12-18T03:28:53;11.83;;;9.27;;
1258;SDS011;619;51.472;6.628;2022-12-18T03:31:27;19.23;;;11.50;;
1258;SDS011;619;51.472;6.628;2022-12-18T03:33:57;14.23;;;9.80;;
1258;SDS011;619;51.472;6.628;2022-12-18T03:36:24;16.90;;;10.97;;
1258;SDS011;619;51.472;6.628;2022-12-18T03:38:55;14.17;;;10.87;;
1258;SDS011;619;51.472;6.628;2022-12-18T03:49:34;18.87;;;12.63;;
1258;SDS011;619;51.472;6.628;2022-12-18T03:52:06;16.73;;;13.20;;
1258;SDS011;619;51.472;6.628;2022-12-18T03:54:35;18.50;;;12.13;;
1258;SDS011;619;51.472;6.628;2022-12-18T03:57:09;18.10;;;12.10;;
1258;SDS011;619;51.472;6.628;2022-12-18T03:59:40;18.00;;;10.80;;
1258;SDS011;619;51.472;6.628;2022-12-18T04:02:10;18.60;;;12.03;;
1258;SDS011;619;51.472;6.628;2022-12-18T04:04:36;18.80;;;11.67;;
1258;SDS011;619;51.472;6.628;2022-12-18T04:07:03;13.47;;;10.10;;
1258;SDS011;619;51.472;6.628;2022-12-18T04:09:30;20.40;;;10.43;;
1258;SDS011;619;51.472;6.628;2022-12-18T04:12:00;15.80;;;10.70;;
1258;SDS011;619;51.472;6.628;2022-12-18T04:14:26;20.40;;;11.77;;
1258;SDS011;619;51.472;6.628;2022-12-18T04:16:54;15.20;;;10.07;;
1258;SDS011;619;51.472;6.628;2022-12-18T04:19:19;13.37;;;10.50;;
1258;SDS011;619;51.472;6.628;2022-12-18T04:21:45;15.57;;;10.93;;
1258;SDS011;619;51.472;6.628;2022-12-18T04:24:13;15.13;;;10.67;;
1258;SDS011;619;51.472;6.628;2022-12-18T04:26:41;14.03;;;9.70;;
1258;SDS011;619;51.472;6.628;2022-12-18T04:29:09;23.07;;;11.97;;
1258;SDS011;619;51.472;6.628;2022-12-18T04:31:35;17.73;;;11.13;;
1258;SDS011;619;51.472;6.628;2022-12-18T04:34:01;16.03;;;11.97;;
1258;SDS011;619;51.472;6.628;2022-12-18T04:36:27;23.83;;;13.87;;
1258;SDS011;619;51.472;6.628;2022-12-18T04:38:52;16.27;;;10.77;;
1258;SDS011;619;51.472;6.628;2022-12-18T04:41:18;15.83;;;10.57;;
1258;SDS011;619;51.472;6.628;2022-12-18T04:43:43;20.03;;;10.80;;
1258;SDS011;619;51.472;6.628;2022-12-18T04:46:11;20.03;;;14.30;;
1258;SDS011;619;51.472;6.628;2022-12-18T04:48:38;16.23;;;12.20;;
1258;SDS011;619;51.472;6.628;2022-12-18T04:51:04;15.53;;;10.17;;
1258;SDS011;619;51.472;6.628;2022-12-18T04:53:33;12.43;;;8.83;;
1258;SDS011;619;51.472;6.628;2022-12-18T04:56:03;13.60;;;9.10;;
1258;SDS011;619;51.472;6.628;2022-12-18T04:58:33;12.20;;;8.53;;
1258;SDS011;619;51.472;6.628;2022-12-18T05:00:59;11.10;;;8.30;;
1258;SDS011;619;51.472;6.628;2022-12-18T05:03:25;12.50;;;8.33;;
1258;SDS011;619;51.472;6.628;2022-12-18T05:05:51;13.87;;;7.60;;
1258;SDS011;619;51.472;6.628;2022-12-18T05:08:18;10.37;;;7.60;;
1258;SDS011;619;51.472;6.628;2022-12-18T05:10:46;13.17;;;7.73;;
1258;SDS011;619;51.472;6.628;2022-12-18T05:13:11;13.60;;;8.23;;
1258;SDS011;619;51.472;6.628;2022-12-18T05:15:37;10.87;;;7.70;;
1258;SDS011;619;51.472;6.628;2022-12-18T05:18:10;10.73;;;8.00;;
1258;SDS011;619;51.472;6.628;2022-12-18T05:20:36;9.43;;;7.20;;
1258;SDS011;619;51.472;6.628;2022-12-18T05:23:04;10.00;;;7.33;;
1258;SDS011;619;51.472;6.628;2022-12-18T05:25:30;11.53;;;7.50;;
1258;SDS011;619;51.472;6.628;2022-12-18T05:27:55;10.30;;;6.70;;
1258;SDS011;619;51.472;6.628;2022-12-18T05:30:24;11.73;;;6.90;;
1258;SDS011;619;51.472;6.628;2022-12-18T05:32:49;7.60;;;6.80;;
1258;SDS011;619;51.472;6.628;2022-12-18T05:35:15;9.37;;;7.60;;
1258;SDS011;619;51.472;6.628;2022-12-18T05:37:41;9.40;;;6.70;;
1258;SDS011;619;51.472;6.628;2022-12-18T05:40:07;11.37;;;7.40;;
1258;SDS011;619;51.472;6.628;2022-12-18T05:42:33;9.73;;;6.50;;
1258;SDS011;619;51.472;6.628;2022-12-18T05:44:58;8.33;;;6.87;;
1258;SDS011;619;51.472;6.628;2022-12-18T05:47:24;7.97;;;6.40;;
1258;SDS011;619;51.472;6.628;2022-12-18T05:49:50;12.20;;;7.23;;
1258;SDS011;619;51.472;6.628;2022-12-18T05:52:15;8.67;;;6.20;;
1258;SDS011;619;51.472;6.628;2022-12-18T05:54:41;12.07;;;8.00;;
1258;SDS011;619;51.472;6.628;2022-12-18T05:57:09;12.50;;;6.70;;
1258;SDS011;619;51.472;6.628;2022-12-18T05:59:35;9.33;;;7.40;;
1258;SDS011;619;51.472;6.628;2022-12-18T06:02:04;10.20;;;7.80;;
1258;SDS011;619;51.472;6.628;2022-12-18T06:04:30;10.73;;;6.80;;
1258;SDS011;619;51.472;6.628;2022-12-18T06:06:56;11.67;;;8.33;;
1258;SDS011;619;51.472;6.628;2022-12-18T06:09:22;12.53;;;8.30;;
1258;SDS011;619;51.472;6.628;2022-12-18T06:11:48;9.27;;;7.33;;
1258;SDS011;619;51.472;6.628;2022-12-18T06:14:15;9.63;;;7.03;;
1258;SDS011;619;51.472;6.628;2022-12-18T06:16:42;10.53;;;6.97;;
1258;SDS011;619;51.472;6.628;2022-12-18T06:19:07;8.80;;;6.67;;
1258;SDS011;619;51.472;6.628;2022-12-18T06:21:38;7.97;;;7.03;;
1258;SDS011;619;51.472;6.628;2022-12-18T06:24:04;8.87;;;6.87;;
1258;SDS011;619;51.472;6.628;2022-12-18T06:26:30;10.53;;;7.03;;
1258;SDS011;619;51.472;6.628;2022-12-18T06:28:56;7.87;;;6.10;;
1258;SDS011;619;51.472;6.628;2022-12-18T06:31:21;8.90;;;7.00;;
1258;SDS011;619;51.472;6.628;2022-12-18T06:33:47;8.27;;;6.50;;
1258;SDS011;619;51.472;6.628;2022-12-18T06:36:13;7.23;;;5.67;;
1258;SDS011;619;51.472;6.628;2022-12-18T06:38:40;8.50;;;6.70;;
1258;SDS011;619;51.472;6.628;2022-12-18T06:41:11;9.70;;;7.27;;
1258;SDS011;619;51.472;6.628;2022-12-18T06:43:38;10.53;;;5.93;;
1258;SDS011;619;51.472;6.628;2022-12-18T06:46:04;8.07;;;6.80;;
1258;SDS011;619;51.472;6.628;2022-12-18T06:48:31;9.90;;;6.93;;
1258;SDS011;619;51.472;6.628;2022-12-18T06:50:57;11.80;;;7.53;;
1258;SDS011;619;51.472;6.628;2022-12-18T06:53:26;13.60;;;9.33;;
1258;SDS011;619;51.472;6.628;2022-12-18T06:55:52;12.33;;;7.90;;
1258;SDS011;619;51.472;6.628;2022-12-18T06:58:24;10.27;;;7.97;;
1258;SDS011;619;51.472;6.628;2022-12-18T07:00:50;11.67;;;8.70;;
1258;SDS011;619;51.472;6.628;2022-12-18T07:03:15;11.30;;;8.50;;
1258;SDS011;619;51.472;6.628;2022-12-18T07:05:41;11.33;;;7.87;;
1258;SDS011;619;51.472;6.628;2022-12-18T07:08:09;11.30;;;7.87;;
1258;SDS011;619;51.472;6.628;2022-12-18T07:11:20;10.47;;;7.27;;
1258;SDS011;619;51.472;6.628;2022-12-18T07:13:20;9.30;;;7.17;;
1258;SDS011;619;51.472;6.628;2022-12-18T07:15:48;9.90;;;7.27;;
1258;SDS011;619;51.472;6.628;2022-12-18T07:18:14;11.23;;;6.77;;
1258;SDS011;619;51.472;6.628;2022-12-18T07:20:40;12.17;;;7.50;;
1258;SDS011;619;51.472;6.628;2022-12-18T07:23:08;12.73;;;9.30;;
1258;SDS011;619;51.472;6.628;2022-12-18T07:25:34;10.43;;;6.97;;
1258;SDS011;619;51.472;6.628;2022-12-18T07:28:00;11.00;;;7.40;;
1258;SDS011;619;51.472;6.628;2022-12-18T07:30:26;8.37;;;6.20;;
1258;SDS011;619;51.472;6.628;2022-12-18T07:33:00;8.33;;;5.83;;
1258;SDS011;619;51.472;6.628;2022-12-18T07:35:25;9.10;;;6.23;;
1258;SDS011;619;51.472;6.628;2022-12-18T07:37:51;9.00;;;6.80;;
1258;SDS011;619;51.472;6.628;2022-12-18T07:40:17;11.80;;;7.97;;
1258;SDS011;619;51.472;6.628;2022-12-18T07:42:42;14.80;;;9.17;;
1258;SDS011;619;51.472;6.628;2022-12-18T07:45:08;10.53;;;8.10;;
1258;SDS011;619;51.472;6.628;2022-12-18T07:47:35;13.53;;;8.10;;
1258;SDS011;619;51.472;6.628;2022-12-18T07:50:06;8.77;;;6.90;;
1258;SDS011;619;51.472;6.628;2022-12-18T07:52:32;11.10;;;7.23;;
1258;SDS011;619;51.472;6.628;2022-12-18T07:54:58;9.90;;;6.90;;
1258;SDS011;619;51.472;6.628;2022-12-18T07:57:23;10.73;;;7.77;;
1258;SDS011;619;51.472;6.628;2022-12-18T07:59:49;10.63;;;7.67;;
1258;SDS011;619;51.472;6.628;2022-12-18T08:02:15;14.43;;;9.07;;
1258;SDS011;619;51.472;6.628;2022-12-18T08:04:43;13.77;;;9.77;;
1258;SDS011;619;51.472;6.628;2022-12-18T08:07:09;14.63;;;9.33;;
1258;SDS011;619;51.472;6.628;2022-12-18T08:09:36;18.10;;;10.13;;
1258;SDS011;619;51.472;6.628;2022-12-18T08:12:02;13.77;;;9.40;;
1258;SDS011;619;51.472;6.628;2022-12-18T08:14:28;14.93;;;9.93;;
1258;SDS011;619;51.472;6.628;2022-12-18T08:16:54;18.80;;;11.33;;
1258;SDS011;619;51.472;6.628;2022-12-18T08:19:19;14.40;;;10.40;;
1258;SDS011;619;51.472;6.628;2022-12-18T08:21:45;12.93;;;9.40;;
1258;SDS011;619;51.472;6.628;2022-12-18T08:24:11;14.97;;;9.97;;
1258;SDS011;619;51.472;6.628;2022-12-18T08:26:36;13.47;;;9.50;;
1258;SDS011;619;51.472;6.628;2022-12-18T08:29:02;14.67;;;8.63;;
1258;SDS011;619;51.472;6.628;2022-12-18T08:31:29;12.23;;;7.90;;
1258;SDS011;619;51.472;6.628;2022-12-18T08:33:56;10.40;;;7.57;;
1258;SDS011;619;51.472;6.628;2022-12-18T08:36:22;9.30;;;6.50;;
1258;SDS011;619;51.472;6.628;2022-12-18T08:38:48;9.30;;;7.13;;
1258;SDS011;619;51.472;6.628;2022-12-18T08:41:15;11.37;;;7.90;;
1258;SDS011;619;51.472;6.628;2022-12-18T08:43:41;13.30;;;7.30;;
1258;SDS011;619;51.472;6.628;2022-12-18T08:46:26;8.43;;;6.20;;
1258;SDS011;619;51.472;6.628;2022-12-18T08:48:58;12.13;;;7.73;;
1258;SDS011;619;51.472;6.628;2022-12-18T08:51:24;9.90;;;7.33;;
1258;SDS011;619;51.472;6.628;2022-12-18T08:53:52;12.17;;;7.30;;
1258;SDS011;619;51.472;6.628;2022-12-18T08:56:20;12.80;;;8.17;;
1258;SDS011;619;51.472;6.628;2022-12-18T08:58:45;8.63;;;7.67;;
1258;SDS011;619;51.472;6.628;2022-12-18T09:01:11;10.47;;;7.87;;
1258;SDS011;619;51.472;6.628;2022-12-18T09:03:40;10.53;;;8.07;;
1258;SDS011;619;51.472;6.628;2022-12-18T09:06:06;11.67;;;8.90;;
1258;SDS011;619;51.472;6.628;2022-12-18T09:08:38;16.30;;;10.47;;
1258;SDS011;619;51.472;6.628;2022-12-18T09:11:03;13.80;;;9.33;;
1258;SDS011;619;51.472;6.628;2022-12-18T09:13:36;14.17;;;10.10;;
1258;SDS011;619;51.472;6.628;2022-12-18T09:16:07;17.13;;;10.67;;
1258;SDS011;619;51.472;6.628;2022-12-18T09:18:35;15.40;;;10.37;;
1258;SDS011;619;51.472;6.628;2022-12-18T09:21:06;15.83;;;10.37;;
1258;SDS011;619;51.472;6.628;2022-12-18T09:23:33;15.13;;;10.77;;
1258;SDS011;619;51.472;6.628;2022-12-18T09:25:59;11.20;;;7.97;;
1258;SDS011;619;51.472;6.628;2022-12-18T09:28:25;10.97;;;8.70;;
1258;SDS011;619;51.472;6.628;2022-12-18T09:30:51;11.40;;;9.60;;
1258;SDS011;619;51.472;6.628;2022-12-18T09:33:16;16.90;;;9.53;;
1258;SDS011;619;51.472;6.628;2022-12-18T09:35:43;12.87;;;9.00;;
1258;SDS011;619;51.472;6.628;2022-12-18T09:38:11;11.63;;;8.40;;
1258;SDS011;619;51.472;6.628;2022-12-18T09:40:48;11.93;;;8.30;;
1258;SDS011;619;51.472;6.628;2022-12-18T09:43:23;11.03;;;8.43;;
1258;SDS011;619;51.472;6.628;2022-12-18T09:46:00;12.63;;;9.43;;
1258;SDS011;619;51.472;6.628;2022-12-18T09:48:32;19.53;;;10.60;;
1258;SDS011;619;51.472;6.628;2022-12-18T09:53:55;14.37;;;10.40;;
1258;SDS011;619;51.472;6.628;2022-12-18T09:56:28;12.20;;;9.27;;
1258;SDS011;619;51.472;6.628;2022-12-18T09:58:59;14.00;;;11.57;;
1258;SDS011;619;51.472;6.628;2022-12-18T10:01:29;13.90;;;11.13;;
1258;SDS011;619;51.472;6.628;2022-12-18T10:03:55;10.93;;;8.03;;
1258;SDS011;619;51.472;6.628;2022-12-18T10:06:55;14.40;;;10.30;;
1258;SDS011;619;51.472;6.628;2022-12-18T10:12:15;12.17;;;9.03;;
1258;SDS011;619;51.472;6.628;2022-12-18T10:18:10;16.87;;;10.90;;
1258;SDS011;619;51.472;6.628;2022-12-18T10:20:51;12.57;;;9.60;;
1258;SDS011;619;51.472;6.628;2022-12-18T10:26:12;14.60;;;11.20;;
1258;SDS011;619;51.472;6.628;2022-12-18T10:28:38;18.00;;;11.50;;
1258;SDS011;619;51.472;6.628;2022-12-18T10:31:10;14.77;;;11.50;;
1258;SDS011;619;51.472;6.628;2022-12-18T10:33:45;12.70;;;10.37;;
1258;SDS011;619;51.472;6.628;2022-12-18T10:36:11;13.80;;;10.37;;
1258;SDS011;619;51.472;6.628;2022-12-18T10:38:39;10.23;;;8.37;;
1258;SDS011;619;51.472;6.628;2022-12-18T10:43:48;12.60;;;9.10;;
1258;SDS011;619;51.472;6.628;2022-12-18T10:46:51;12.30;;;10.03;;
1258;SDS011;619;51.472;6.628;2022-12-18T10:49:25;14.47;;;9.80;;
1258;SDS011;619;51.472;6.628;2022-12-18T10:52:07;12.10;;;9.80;;
1258;SDS011;619;51.472;6.628;2022-12-18T10:54:36;15.60;;;11.30;;
1258;SDS011;619;51.472;6.628;2022-12-18T11:00:22;13.27;;;9.37;;
1258;SDS011;619;51.472;6.628;2022-12-18T11:02:49;12.53;;;9.53;;
1258;SDS011;619;51.472;6.628;2022-12-18T11:07:53;12.90;;;10.00;;
1258;SDS011;619;51.472;6.628;2022-12-18T11:10:25;13.67;;;9.93;;
1258;SDS011;619;51.472;6.628;2022-12-18T11:13:11;12.87;;;10.00;;
1258;SDS011;619;51.472;6.628;2022-12-18T11:15:42;13.90;;;9.90;;
1258;SDS011;619;51.472;6.628;2022-12-18T11:18:16;14.60;;;11.60;;
1258;SDS011;619;51.472;6.628;2022-12-18T11:23:31;17.40;;;10.70;;
1258;SDS011;619;51.472;6.628;2022-12-18T11:26:01;13.67;;;10.60;;
1258;SDS011;619;51.472;6.628;2022-12-18T11:31:35;13.57;;;10.50;;
1258;SDS011;619;51.472;6.628;2022-12-18T11:36:34;14.67;;;10.60;;
1258;SDS011;619;51.472;6.628;2022-12-18T11:44:48;12.43;;;10.87;;
1258;SDS011;619;51.472;6.628;2022-12-18T11:49:47;16.63;;;11.07;;
1258;SDS011;619;51.472;6.628;2022-12-18T11:54:52;14.70;;;11.70;;
1258;SDS011;619;51.472;6.628;2022-12-18T11:57:36;14.70;;;9.80;;
1258;SDS011;619;51.472;6.628;2022-12-18T12:05:44;13.47;;;10.60;;
1258;SDS011;619;51.472;6.628;2022-12-18T12:10:58;13.80;;;9.90;;
1258;SDS011;619;51.472;6.628;2022-12-18T12:13:42;12.33;;;9.77;;
1258;SDS011;619;51.472;6.628;2022-12-18T12:19:10;15.17;;;10.93;;
1258;SDS011;619;51.472;6.628;2022-12-18T12:21:56;15.73;;;10.90;;
1258;SDS011;619;51.472;6.628;2022-12-18T12:24:37;14.47;;;11.70;;
1258;SDS011;619;51.472;6.628;2022-12-18T12:30:15;16.50;;;11.50;;
1258;SDS011;619;51.472;6.628;2022-12-18T12:32:53;17.40;;;11.27;;
1258;SDS011;619;51.472;6.628;2022-12-18T12:41:15;18.67;;;13.90;;
1258;SDS011;619;51.472;6.628;2022-12-18T12:44:05;15.13;;;12.30;;
1258;SDS011;619;51.472;6.628;2022-12-18T12:46:49;15.27;;;11.93;;
1258;SDS011;619;51.472;6.628;2022-12-18T12:49:23;27.63;;;13.30;;
1258;SDS011;619;51.472;6.628;2022-12-18T12:51:56;17.00;;;11.47;;
1258;SDS011;619;51.472;6.628;2022-12-18T12:54:46;15.00;;;12.60;;
1258;SDS011;619;51.472;6.628;2022-12-18T12:57:19;21.13;;;12.93;;
1258;SDS011;619;51.472;6.628;2022-12-18T13:03:03;18.70;;;13.43;;
1258;SDS011;619;51.472;6.628;2022-12-18T13:08:26;21.90;;;15.60;;
1258;SDS011;619;51.472;6.628;2022-12-18T13:10:52;19.53;;;13.70;;
1258;SDS011;619;51.472;6.628;2022-12-18T13:13:55;18.90;;;13.27;;
1258;SDS011;619;51.472;6.628;2022-12-18T13:16:25;19.00;;;14.40;;
1258;SDS011;619;51.472;6.628;2022-12-18T13:18:54;22.57;;;13.80;;
1258;SDS011;619;51.472;6.628;2022-12-18T13:21:29;25.20;;;15.60;;
1258;SDS011;619;51.472;6.628;2022-12-18T13:24:14;24.23;;;15.03;;
1258;SDS011;619;51.472;6.628;2022-12-18T13:27:01;19.97;;;15.10;;
1258;SDS011;619;51.472;6.628;2022-12-18T13:30:20;19.10;;;14.60;;
1258;SDS011;619;51.472;6.628;2022-12-18T13:41:00;17.00;;;14.00;;
1258;SDS011;619;51.472;6.628;2022-12-18T13:49:01;20.97;;;14.13;;
1258;SDS011;619;51.472;6.628;2022-12-18T13:51:47;17.93;;;12.77;;
1258;SDS011;619;51.472;6.628;2022-12-18T13:54:34;16.80;;;13.23;;
1258;SDS011;619;51.472;6.628;2022-12-18T13:57:02;19.93;;;12.63;;
1258;SDS011;619;51.472;6.628;2022-12-18T13:59:48;20.20;;;13.87;;
1258;SDS011;619;51.472;6.628;2022-12-18T14:02:19;15.90;;;13.07;;
1258;SDS011;619;51.472;6.628;2022-12-18T14:04:49;14.20;;;12.23;;
1258;SDS011;619;51.472;6.628;2022-12-18T14:07:25;17.37;;;13.20;;
1258;SDS011;619;51.472;6.628;2022-12-18T14:09:54;19.77;;;12.90;;
1258;SDS011;619;51.472;6.628;2022-12-18T14:12:29;18.07;;;13.63;;
1258;SDS011;619;51.472;6.628;2022-12-18T14:18:17;22.10;;;14.33;;
1258;SDS011;619;51.472;6.628;2022-12-18T14:21:19;24.80;;;14.93;;
1258;SDS011;619;51.472;6.628;2022-12-18T14:26:47;22.60;;;16.30;;
1258;SDS011;619;51.472;6.628;2022-12-18T14:29:21;23.10;;;16.33;;
1258;SDS011;619;51.472;6.628;2022-12-18T14:32:03;26.77;;;16.20;;
1258;SDS011;619;51.472;6.628;2022-12-18T14:34:34;24.77;;;17.13;;
1258;SDS011;619;51.472;6.628;2022-12-18T14:37:00;22.90;;;15.37;;
1258;SDS011;619;51.472;6.628;2022-12-18T14:39:26;26.50;;;19.53;;
1258;SDS011;619;51.472;6.628;2022-12-18T14:41:52;21.87;;;15.83;;
1258;SDS011;619;51.472;6.628;2022-12-18T14:44:18;20.20;;;15.10;;
1258;SDS011;619;51.472;6.628;2022-12-18T14:46:44;23.90;;;15.90;;
1258;SDS011;619;51.472;6.628;2022-12-18T14:51:49;18.73;;;14.50;;
1258;SDS011;619;51.472;6.628;2022-12-18T14:54:20;17.23;;;14.03;;
1258;SDS011;619;51.472;6.628;2022-12-18T14:56:47;22.73;;;16.30;;
1258;SDS011;619;51.472;6.628;2022-12-18T14:59:17;16.03;;;13.37;;
1258;SDS011;619;51.472;6.628;2022-12-18T15:01:49;20.67;;;15.37;;
1258;SDS011;619;51.472;6.628;2022-12-18T15:04:23;21.40;;;15.30;;
1258;SDS011;619;51.472;6.628;2022-12-18T15:09:40;18.37;;;14.60;;
1258;SDS011;619;51.472;6.628;2022-12-18T15:12:19;25.83;;;17.37;;
1258;SDS011;619;51.472;6.628;2022-12-18T15:14:51;19.67;;;14.67;;
1258;SDS011;619;51.472;6.628;2022-12-18T15:17:21;26.13;;;17.20;;
1258;SDS011;619;51.472;6.628;2022-12-18T15:19:48;21.37;;;17.17;;
1258;SDS011;619;51.472;6.628;2022-12-18T15:24:55;21.57;;;15.60;;
1258;SDS011;619;51.472;6.628;2022-12-18T15:27:35;19.23;;;15.63;;
1258;SDS011;619;51.472;6.628;2022-12-18T15:32:35;18.77;;;15.07;;
1258;SDS011;619;51.472;6.628;2022-12-18T15:35:03;22.30;;;15.80;;
1258;SDS011;619;51.472;6.628;2022-12-18T15:37:37;26.57;;;17.43;;
1258;SDS011;619;51.472;6.628;2022-12-18T15:40:03;22.80;;;16.10;;
1258;SDS011;619;51.472;6.628;2022-12-18T15:42:29;23.83;;;16.83;;
1258;SDS011;619;51.472;6.628;2022-12-18T15:45:13;22.43;;;16.90;;
1258;SDS011;619;51.472;6.628;2022-12-18T15:47:42;26.80;;;16.33;;
1258;SDS011;619;51.472;6.628;2022-12-18T15:50:08;24.53;;;16.40;;
1258;SDS011;619;51.472;6.628;2022-12-18T15:52:41;23.13;;;17.43;;
1258;SDS011;619;51.472;6.628;2022-12-18T15:55:12;20.87;;;16.40;;
1258;SDS011;619;51.472;6.628;2022-12-18T15:58:06;23.90;;;17.30;;
1258;SDS011;619;51.472;6.628;2022-12-18T16:00:33;21.83;;;16.57;;
1258;SDS011;619;51.472;6.628;2022-12-18T16:03:00;20.80;;;16.37;;
1258;SDS011;619;51.472;6.628;2022-12-18T16:05:26;21.17;;;16.07;;
1258;SDS011;619;51.472;6.628;2022-12-18T16:07:52;21.70;;;15.57;;
1258;SDS011;619;51.472;6.628;2022-12-18T16:10:18;21.80;;;16.03;;
1258;SDS011;619;51.472;6.628;2022-12-18T16:12:44;22.63;;;17.30;;
1258;SDS011;619;51.472;6.628;2022-12-18T16:15:10;22.00;;;17.07;;
1258;SDS011;619;51.472;6.628;2022-12-18T16:17:38;22.47;;;14.90;;
1258;SDS011;619;51.472;6.628;2022-12-18T16:20:06;24.10;;;16.40;;
1258;SDS011;619;51.472;6.628;2022-12-18T16:22:40;21.80;;;15.40;;
1258;SDS011;619;51.472;6.628;2022-12-18T16:25:15;24.83;;;16.90;;
1258;SDS011;619;51.472;6.628;2022-12-18T16:27:43;19.00;;;15.80;;
1258;SDS011;619;51.472;6.628;2022-12-18T16:30:16;21.37;;;14.93;;
1258;SDS011;619;51.472;6.628;2022-12-18T16:32:43;20.50;;;14.57;;
1258;SDS011;619;51.472;6.628;2022-12-18T16:35:12;21.17;;;16.33;;
1258;SDS011;619;51.472;6.628;2022-12-18T16:37:40;24.73;;;17.10;;
1258;SDS011;619;51.472;6.628;2022-12-18T16:40:07;24.97;;;17.60;;
1258;SDS011;619;51.472;6.628;2022-12-18T16:42:34;24.63;;;17.53;;
1258;SDS011;619;51.472;6.628;2022-12-18T16:45:01;25.20;;;18.70;;
1258;SDS011;619;51.472;6.628;2022-12-18T16:47:28;23.30;;;16.90;;
1258;SDS011;619;51.472;6.628;2022-12-18T16:49:53;28.23;;;17.30;;
1258;SDS011;619;51.472;6.628;2022-12-18T16:52:19;25.23;;;18.33;;
1258;SDS011;619;51.472;6.628;2022-12-18T16:54:45;24.80;;;17.67;;
1258;SDS011;619;51.472;6.628;2022-12-18T16:57:12;25.70;;;17.80;;
1258;SDS011;619;51.472;6.628;2022-12-18T16:59:41;22.97;;;18.00;;
1258;SDS011;619;51.472;6.628;2022-12-18T17:02:14;25.47;;;18.13;;
1258;SDS011;619;51.472;6.628;2022-12-18T17:04:44;27.00;;;19.23;;
1258;SDS011;619;51.472;6.628;2022-12-18T17:07:10;26.17;;;18.50;;
1258;SDS011;619;51.472;6.628;2022-12-18T17:09:37;22.03;;;17.47;;
1258;SDS011;619;51.472;6.628;2022-12-18T17:12:05;25.57;;;18.57;;
1258;SDS011;619;51.472;6.628;2022-12-18T17:14:32;24.67;;;17.60;;
1258;SDS011;619;51.472;6.628;2022-12-18T17:17:01;28.70;;;18.97;;
1258;SDS011;619;51.472;6.628;2022-12-18T17:19:27;24.60;;;18.37;;
1258;SDS011;619;51.472;6.628;2022-12-18T17:21:53;26.87;;;17.00;;
1258;SDS011;619;51.472;6.628;2022-12-18T17:24:19;25.83;;;20.10;;
1258;SDS011;619;51.472;6.628;2022-12-18T17:26:45;26.43;;;18.53;;
1258;SDS011;619;51.472;6.628;2022-12-18T17:29:16;26.60;;;20.13;;
1258;SDS011;619;51.472;6.628;2022-12-18T17:31:44;25.10;;;18.77;;
1258;SDS011;619;51.472;6.628;2022-12-18T17:34:10;24.50;;;19.70;;
1258;SDS011;619;51.472;6.628;2022-12-18T17:36:37;24.70;;;18.70;;